Flugplatz Memmingen Allgau

Bericht für EDJA

vom 19.02. um 07:50 UTC

Wind 9 kt aus 210°

Sichtweite 10 km oder mehr

gute Sicht, keine Wolken < 5000 ft, keine CB, keine Wettererscheinungen (CAVOK)

Temperatur 4.0°C

Taupunkt -1.0°C

Luftfeuchtigkeit 70%

Luftdruck 1021 hPa

EDJA 190750Z 21009KT CAVOK 04/M01 Q1021

Prognose für EDJA

vom 19.02. um 05:00 UTC

Zwischen 06:00 UTC und 15:00 UTC

Wind 6 kt aus 220°

Sichtweite 10 km oder mehr

keine signifikanten Wettererscheinungen

keine Wolken

TAF EDJA 190500Z 1906/1915 22006KT CAVOK
Impressum